createdAt,value
2023-04-18T16:36:20.075Z,21.86
2023-04-18T16:38:48.768Z,21.78
2023-04-18T16:41:17.259Z,21.63
2023-04-18T16:43:46.187Z,21.23
2023-04-18T16:46:14.891Z,21.00
2023-04-18T16:48:45.083Z,21.03
2023-04-18T16:51:13.679Z,21.11
2023-04-18T16:53:45.868Z,21.11
2023-04-18T16:56:14.320Z,21.06
2023-04-18T16:58:42.857Z,20.96
2023-04-18T17:01:12.486Z,20.80
2023-04-18T17:03:42.693Z,20.31
2023-04-18T17:06:11.344Z,19.98
2023-04-18T17:08:41.753Z,19.87
2023-04-18T17:11:16.606Z,19.99
2023-04-18T17:16:01.874Z,19.90
2023-04-18T17:18:31.080Z,19.83
2023-04-18T17:21:00.431Z,19.86
2023-04-18T17:23:30.351Z,19.66
2023-04-18T17:26:01.524Z,19.10
2023-04-18T17:28:35.648Z,18.14
2023-04-18T17:31:05.112Z,17.15
2023-04-18T17:33:33.804Z,16.34
2023-04-18T17:36:13.123Z,15.80
2023-04-18T17:38:44.034Z,15.66
2023-04-18T17:41:14.129Z,15.92
2023-04-18T17:43:46.844Z,16.11
2023-04-18T17:46:16.811Z,16.10
2023-04-18T17:48:45.758Z,16.13
2023-04-18T17:51:17.719Z,15.98
2023-04-18T17:53:49.940Z,15.94
2023-04-18T17:56:26.878Z,15.90
2023-04-18T17:59:03.474Z,15.47
2023-04-18T18:01:48.192Z,15.08
2023-04-18T18:04:26.229Z,14.61
2023-04-18T18:07:03.373Z,14.31
2023-04-18T18:12:36.491Z,13.73
2023-04-18T18:15:10.678Z,13.49
2023-04-18T18:17:43.606Z,13.27
2023-04-18T18:20:17.709Z,13.13
2023-04-18T18:22:47.780Z,12.97
2023-04-18T18:25:18.591Z,12.82
2023-04-18T18:30:46.452Z,12.53
2023-04-18T18:33:16.863Z,12.39
2023-04-18T18:35:58.435Z,12.31
2023-04-18T18:38:28.893Z,12.16
2023-04-18T18:41:08.357Z,12.10
2023-04-18T18:43:37.545Z,12.00
2023-04-18T18:46:09.851Z,11.89
2023-04-18T18:48:40.668Z,11.80
2023-04-18T18:51:11.363Z,11.73
2023-04-18T18:53:41.026Z,11.66
2023-04-18T18:56:10.353Z,11.59
2023-04-18T18:58:39.955Z,11.48
2023-04-18T19:01:11.649Z,11.47
2023-04-18T19:03:46.271Z,11.38
2023-04-18T19:06:17.352Z,11.35
2023-04-18T19:08:48.323Z,11.31
2023-04-18T19:11:18.503Z,11.23
2023-04-18T19:13:48.058Z,11.17
2023-04-18T19:16:19.413Z,11.09
2023-04-18T19:18:49.541Z,11.00
2023-04-18T19:21:18.277Z,10.96
2023-04-18T19:23:47.315Z,10.90
2023-04-18T19:26:22.313Z,10.86
2023-04-18T19:28:55.133Z,10.77
2023-04-18T19:31:26.857Z,10.71
2023-04-18T19:33:57.557Z,10.66
2023-04-18T19:36:32.321Z,10.60
2023-04-18T19:39:01.056Z,10.55
2023-04-18T19:41:34.955Z,10.47
2023-04-18T19:44:05.824Z,10.42
2023-04-18T19:46:36.728Z,10.34
2023-04-18T19:49:06.006Z,10.27
2023-04-18T19:51:49.787Z,10.20
2023-04-18T19:54:22.611Z,10.14
2023-04-18T19:56:52.734Z,10.12
2023-04-18T19:59:21.516Z,10.05
2023-04-18T20:01:59.510Z,9.96
2023-04-18T20:04:49.678Z,9.90
2023-04-18T20:07:18.344Z,9.84
2023-04-18T20:09:50.705Z,9.81
2023-04-18T20:12:25.522Z,9.77
2023-04-18T20:14:56.005Z,9.74
2023-04-18T20:17:26.824Z,9.72
2023-04-18T20:19:58.565Z,9.62
2023-04-18T20:22:28.480Z,9.60
2023-04-18T20:24:58.922Z,9.60
2023-04-18T20:27:29.633Z,9.53
2023-04-18T20:30:01.105Z,9.49
2023-04-18T20:32:31.505Z,9.47
2023-04-18T20:35:02.936Z,9.40
2023-04-18T20:37:38.251Z,9.34
2023-04-18T20:40:11.001Z,9.33
2023-04-18T20:42:41.881Z,9.27
2023-04-18T20:45:12.351Z,9.20
2023-04-18T20:47:50.586Z,9.16
2023-04-18T20:50:21.242Z,9.13
2023-04-18T20:52:51.052Z,9.06
2023-04-18T20:55:20.056Z,9.04
2023-04-18T20:57:50.169Z,9.02
2023-04-18T21:00:22.016Z,8.98
2023-04-18T21:02:52.599Z,8.88
2023-04-18T21:05:21.539Z,8.84
2023-04-18T21:07:50.126Z,8.77
2023-04-18T21:10:20.600Z,8.78
2023-04-18T21:12:50.986Z,8.72
2023-04-18T21:15:21.467Z,8.70
2023-04-18T21:17:55.026Z,8.67
2023-04-18T21:20:23.802Z,8.62
2023-04-18T21:22:54.324Z,8.56
2023-04-18T21:25:23.241Z,8.47
2023-04-18T21:27:56.318Z,8.43
2023-04-18T21:30:27.136Z,8.36
2023-04-18T21:32:57.480Z,8.35
2023-04-18T21:35:49.409Z,8.27
2023-04-18T21:38:18.223Z,8.25
2023-04-18T21:40:46.976Z,8.20
2023-04-18T21:43:15.961Z,8.17
2023-04-18T21:45:46.941Z,8.10
2023-04-18T21:48:22.035Z,8.07
2023-04-18T21:51:02.806Z,8.04
2023-04-18T21:53:34.630Z,8.03
2023-04-18T21:56:04.682Z,7.99
2023-04-18T21:58:37.214Z,7.96
2023-04-18T22:01:06.138Z,7.91
2023-04-18T22:03:37.736Z,7.90
2023-04-18T22:06:09.163Z,7.86
2023-04-18T22:08:46.579Z,7.82
2023-04-18T22:11:16.059Z,7.74
2023-04-18T22:13:48.276Z,7.74
2023-04-18T22:16:19.104Z,7.67
2023-04-18T22:18:50.567Z,7.55
2023-04-18T22:21:19.394Z,7.55
2023-04-18T22:23:52.346Z,7.57
2023-04-18T22:27:21.402Z,7.49
2023-04-18T22:29:53.365Z,7.42
2023-04-18T22:32:36.303Z,7.44
2023-04-18T22:35:09.381Z,7.37
2023-04-18T22:37:57.695Z,7.34
2023-04-18T22:40:27.250Z,7.29
2023-04-18T22:42:56.344Z,7.26
2023-04-18T22:45:24.960Z,7.20
2023-04-18T22:47:54.026Z,7.18
2023-04-18T22:50:28.435Z,7.16
2023-04-18T22:52:57.550Z,7.10
2023-04-18T22:55:30.511Z,7.07
2023-04-18T22:57:59.438Z,7.05
2023-04-18T23:00:40.290Z,7.03
2023-04-18T23:03:10.531Z,7.00
2023-04-18T23:05:44.947Z,6.92
2023-04-18T23:08:19.077Z,6.94
2023-04-18T23:10:49.349Z,6.89
2023-04-18T23:13:18.461Z,6.87
2023-04-18T23:15:50.977Z,6.86
2023-04-18T23:18:19.575Z,6.82
2023-04-18T23:20:51.212Z,6.79
2023-04-18T23:23:20.051Z,6.78
2023-04-18T23:25:50.496Z,6.72
2023-04-18T23:28:35.638Z,6.66
2023-04-18T23:31:11.686Z,6.64
2023-04-18T23:33:47.432Z,6.56
2023-04-18T23:36:18.730Z,6.54
2023-04-18T23:38:48.699Z,6.43
2023-04-18T23:41:19.657Z,6.40
2023-04-18T23:43:55.391Z,6.34
2023-04-18T23:46:26.830Z,6.29
2023-04-18T23:48:55.983Z,6.28
2023-04-18T23:51:27.133Z,6.26
2023-04-18T23:53:55.918Z,6.23
2023-04-18T23:56:31.844Z,6.21
2023-04-18T23:59:00.552Z,6.16
